Hlavní strana
METAR-TAF:

METAR-TAF

Letiště :

Letiště Adolfa Suáreze

Madrid, Španělsko

zeměpisná šířka: 40-27N, zeměpisná délka: 003-33W, výška: 609 m

Aktuální stav počasí

Zpráva byla vytvořena před 30 minutami, v 00:00 UTC
Severoseverozápadní vítr 4 kt, proměnlivý mezi západoseverozápadním a severoseverovýchodním
Teplota 10°C
Vlhkost vzduchu 87%
Tlak 1019 hPa
Viditelnost 10 km a více
Žádná oblačnost pod 1500 m, nevyskytují se cumulonimby.

METAR: LEMD 200000Z 34004KT 300V030 CAVOK 10/08 Q1019 R88/29//95 NOSIG

Čas: 02:30 (00:30 UTC)

Předpověď počasí

Zpráva byla vytvořena před 1 hodinou a 30 minutami, v 23:00 UTC
Předpověď platná od 20 v 00 UTC do 21 v 06 UTC
Severovýchodní vítr 9 kt
Viditelnost 10 km a více
Oblačno až skoro zataženo ve výšce 3000 ft
Pravděpodobnost 30% :
Dočasný
od 20 v 02 UTC do 20 v 18 UTC
Severovýchodní vítr 15 kt s nárazy do 28 kt

TAF: LEMD 192300Z 2000/2106 05009KT 9999 BKN030 TX20/2015Z TN07/2106Z PROB30 TEMPO 2002/2018 05015G28KT

Stav a předpovědi počasí z více než 4 000 letišť (zprávy METAR a TAF).

Červené a žluté tečky na mapě představují dostupné meteorologické stanice.

Když kurzor umístíte na tečku, zobrazí se název stanice.

Pak kliknutím zobrazíte stav a předpověď počasí.

Chcete-li změnit mapu, kliknutím na zelené tlačítko se znaménkem +mapu přiblížíte, kliknutím na zelené tlačítko se znaménkem – mapu oddálíte a kliknutím na zelené šipky přejdete na sousední mapy.


METAR-TAF: